sensor_id;sensor_type;location;lat;lon;timestamp;P1;durP1;ratioP1;P2;durP2;ratioP2
16436;SDS011;8328;52.206;21.006;2022-10-22T00:01:03;422.50;;;79.10;;
16436;SDS011;8328;52.206;21.006;2022-10-22T00:03:29;424.52;;;82.07;;
16436;SDS011;8328;52.206;21.006;2022-10-22T00:05:55;420.00;;;82.40;;
16436;SDS011;8328;52.206;21.006;2022-10-22T00:08:21;421.67;;;83.43;;
16436;SDS011;8328;52.206;21.006;2022-10-22T00:10:47;422.55;;;82.57;;
16436;SDS011;8328;52.206;21.006;2022-10-22T00:13:12;428.13;;;84.63;;
16436;SDS011;8328;52.206;21.006;2022-10-22T00:15:38;429.90;;;82.77;;
16436;SDS011;8328;52.206;21.006;2022-10-22T00:18:04;419.23;;;80.33;;
16436;SDS011;8328;52.206;21.006;2022-10-22T00:20:30;427.80;;;83.77;;
16436;SDS011;8328;52.206;21.006;2022-10-22T00:22:56;423.27;;;83.90;;
16436;SDS011;8328;52.206;21.006;2022-10-22T00:25:21;417.50;;;81.87;;
16436;SDS011;8328;52.206;21.006;2022-10-22T00:27:47;422.67;;;81.77;;
16436;SDS011;8328;52.206;21.006;2022-10-22T00:30:13;425.23;;;83.27;;
16436;SDS011;8328;52.206;21.006;2022-10-22T00:32:39;425.23;;;86.67;;
16436;SDS011;8328;52.206;21.006;2022-10-22T00:35:04;425.17;;;84.83;;
16436;SDS011;8328;52.206;21.006;2022-10-22T00:37:30;426.77;;;83.70;;
16436;SDS011;8328;52.206;21.006;2022-10-22T00:39:56;428.07;;;85.47;;
16436;SDS011;8328;52.206;21.006;2022-10-22T00:42:23;423.43;;;82.90;;
16436;SDS011;8328;52.206;21.006;2022-10-22T00:47:36;425.02;;;82.28;;
16436;SDS011;8328;52.206;21.006;2022-10-22T00:50:28;420.40;;;80.80;;
16436;SDS011;8328;52.206;21.006;2022-10-22T00:53:02;420.35;;;83.53;;
16436;SDS011;8328;52.206;21.006;2022-10-22T00:55:30;422.95;;;84.72;;
16436;SDS011;8328;52.206;21.006;2022-10-22T00:57:57;432.75;;;87.63;;
16436;SDS011;8328;52.206;21.006;2022-10-22T01:00:24;425.85;;;85.93;;
16436;SDS011;8328;52.206;21.006;2022-10-22T01:02:50;424.80;;;84.85;;
16436;SDS011;8328;52.206;21.006;2022-10-22T01:05:17;420.50;;;82.05;;
16436;SDS011;8328;52.206;21.006;2022-10-22T01:07:45;426.15;;;85.78;;
16436;SDS011;8328;52.206;21.006;2022-10-22T01:18:01;421.42;;;81.75;;
16436;SDS011;8328;52.206;21.006;2022-10-22T01:20:42;425.80;;;85.05;;
16436;SDS011;8328;52.206;21.006;2022-10-22T01:26:19;424.30;;;82.88;;
16436;SDS011;8328;52.206;21.006;2022-10-22T01:31:47;426.52;;;82.97;;
16436;SDS011;8328;52.206;21.006;2022-10-22T01:34:18;425.35;;;83.28;;
16436;SDS011;8328;52.206;21.006;2022-10-22T01:36:46;428.15;;;84.95;;
16436;SDS011;8328;52.206;21.006;2022-10-22T01:39:14;423.25;;;81.57;;
16436;SDS011;8328;52.206;21.006;2022-10-22T01:41:44;426.48;;;84.75;;
16436;SDS011;8328;52.206;21.006;2022-10-22T01:47:00;431.08;;;85.43;;
16436;SDS011;8328;52.206;21.006;2022-10-22T01:49:55;425.75;;;82.43;;
16436;SDS011;8328;52.206;21.006;2022-10-22T02:00:43;424.38;;;83.35;;
16436;SDS011;8328;52.206;21.006;2022-10-22T02:03:18;425.02;;;84.32;;
16436;SDS011;8328;52.206;21.006;2022-10-22T02:05:52;427.38;;;84.95;;
16436;SDS011;8328;52.206;21.006;2022-10-22T02:08:23;422.88;;;82.55;;
16436;SDS011;8328;52.206;21.006;2022-10-22T02:10:58;422.95;;;81.15;;
16436;SDS011;8328;52.206;21.006;2022-10-22T02:13:29;425.05;;;82.20;;
16436;SDS011;8328;52.206;21.006;2022-10-22T02:16:05;420.63;;;82.43;;
16436;SDS011;8328;52.206;21.006;2022-10-22T02:18:32;424.85;;;81.53;;
16436;SDS011;8328;52.206;21.006;2022-10-22T02:21:01;421.45;;;81.15;;
16436;SDS011;8328;52.206;21.006;2022-10-22T02:23:27;429.85;;;83.60;;
16436;SDS011;8328;52.206;21.006;2022-10-22T02:25:59;427.30;;;85.47;;
16436;SDS011;8328;52.206;21.006;2022-10-22T02:28:36;425.15;;;82.43;;
16436;SDS011;8328;52.206;21.006;2022-10-22T02:31:30;421.38;;;81.82;;
16436;SDS011;8328;52.206;21.006;2022-10-22T02:33:57;430.40;;;85.45;;
16436;SDS011;8328;52.206;21.006;2022-10-22T02:36:29;422.02;;;83.72;;
16436;SDS011;8328;52.206;21.006;2022-10-22T02:38:55;421.50;;;80.13;;
16436;SDS011;8328;52.206;21.006;2022-10-22T02:41:22;428.85;;;83.05;;
16436;SDS011;8328;52.206;21.006;2022-10-22T02:43:52;434.92;;;88.53;;
16436;SDS011;8328;52.206;21.006;2022-10-22T02:46:19;420.70;;;83.05;;
16436;SDS011;8328;52.206;21.006;2022-10-22T02:48:45;426.50;;;84.38;;
16436;SDS011;8328;52.206;21.006;2022-10-22T02:51:11;423.30;;;84.32;;
16436;SDS011;8328;52.206;21.006;2022-10-22T02:53:37;431.27;;;87.13;;
16436;SDS011;8328;52.206;21.006;2022-10-22T02:56:03;424.90;;;84.73;;
16436;SDS011;8328;52.206;21.006;2022-10-22T02:58:29;428.90;;;85.75;;
16436;SDS011;8328;52.206;21.006;2022-10-22T03:00:55;424.45;;;84.90;;
16436;SDS011;8328;52.206;21.006;2022-10-22T03:03:21;424.97;;;84.70;;
16436;SDS011;8328;52.206;21.006;2022-10-22T03:05:46;429.13;;;85.70;;
16436;SDS011;8328;52.206;21.006;2022-10-22T03:08:14;430.70;;;83.82;;
16436;SDS011;8328;52.206;21.006;2022-10-22T03:10:39;426.13;;;86.13;;
16436;SDS011;8328;52.206;21.006;2022-10-22T03:13:05;422.77;;;84.10;;
16436;SDS011;8328;52.206;21.006;2022-10-22T03:15:31;433.00;;;84.93;;
16436;SDS011;8328;52.206;21.006;2022-10-22T03:17:57;421.60;;;84.93;;
16436;SDS011;8328;52.206;21.006;2022-10-22T03:20:23;431.60;;;84.70;;
16436;SDS011;8328;52.206;21.006;2022-10-22T03:22:48;428.87;;;86.80;;
16436;SDS011;8328;52.206;21.006;2022-10-22T03:25:15;419.40;;;83.77;;
16436;SDS011;8328;52.206;21.006;2022-10-22T03:27:44;425.08;;;82.80;;
16436;SDS011;8328;52.206;21.006;2022-10-22T03:30:11;420.83;;;82.65;;
16436;SDS011;8328;52.206;21.006;2022-10-22T03:32:37;422.87;;;82.93;;
16436;SDS011;8328;52.206;21.006;2022-10-22T03:35:03;422.47;;;82.13;;
16436;SDS011;8328;52.206;21.006;2022-10-22T03:37:29;436.63;;;89.68;;
16436;SDS011;8328;52.206;21.006;2022-10-22T03:39:56;426.17;;;84.53;;
16436;SDS011;8328;52.206;21.006;2022-10-22T03:42:22;424.67;;;83.43;;
16436;SDS011;8328;52.206;21.006;2022-10-22T03:44:48;431.60;;;83.97;;
16436;SDS011;8328;52.206;21.006;2022-10-22T03:47:14;422.25;;;83.07;;
16436;SDS011;8328;52.206;21.006;2022-10-22T03:49:40;423.30;;;85.00;;
16436;SDS011;8328;52.206;21.006;2022-10-22T03:52:09;427.10;;;83.75;;
16436;SDS011;8328;52.206;21.006;2022-10-22T03:54:37;427.23;;;84.53;;
16436;SDS011;8328;52.206;21.006;2022-10-22T03:57:04;427.05;;;84.15;;
16436;SDS011;8328;52.206;21.006;2022-10-22T03:59:34;426.52;;;83.60;;
16436;SDS011;8328;52.206;21.006;2022-10-22T04:02:05;425.60;;;85.43;;
16436;SDS011;8328;52.206;21.006;2022-10-22T04:04:31;426.00;;;86.55;;
16436;SDS011;8328;52.206;21.006;2022-10-22T04:06:57;427.63;;;85.20;;
16436;SDS011;8328;52.206;21.006;2022-10-22T04:09:23;430.67;;;82.57;;
16436;SDS011;8328;52.206;21.006;2022-10-22T04:11:49;423.00;;;82.77;;
16436;SDS011;8328;52.206;21.006;2022-10-22T04:14:14;420.03;;;79.23;;
16436;SDS011;8328;52.206;21.006;2022-10-22T04:16:40;421.30;;;82.43;;
16436;SDS011;8328;52.206;21.006;2022-10-22T04:19:06;415.52;;;78.40;;
16436;SDS011;8328;52.206;21.006;2022-10-22T04:21:32;427.35;;;84.65;;
16436;SDS011;8328;52.206;21.006;2022-10-22T04:23:59;420.73;;;82.07;;
16436;SDS011;8328;52.206;21.006;2022-10-22T04:26:25;420.48;;;82.53;;
16436;SDS011;8328;52.206;21.006;2022-10-22T04:28:51;414.27;;;82.63;;
16436;SDS011;8328;52.206;21.006;2022-10-22T04:31:21;427.55;;;84.25;;
16436;SDS011;8328;52.206;21.006;2022-10-22T04:33:52;426.05;;;84.38;;
16436;SDS011;8328;52.206;21.006;2022-10-22T04:36:19;425.73;;;83.35;;
16436;SDS011;8328;52.206;21.006;2022-10-22T04:38:45;423.75;;;85.70;;
16436;SDS011;8328;52.206;21.006;2022-10-22T04:43:39;421.45;;;83.10;;
16436;SDS011;8328;52.206;21.006;2022-10-22T04:46:06;418.90;;;81.95;;
16436;SDS011;8328;52.206;21.006;2022-10-22T04:48:34;415.73;;;81.53;;
16436;SDS011;8328;52.206;21.006;2022-10-22T04:51:00;423.67;;;82.90;;
16436;SDS011;8328;52.206;21.006;2022-10-22T04:53:27;419.10;;;83.35;;
16436;SDS011;8328;52.206;21.006;2022-10-22T04:55:53;428.80;;;84.77;;
16436;SDS011;8328;52.206;21.006;2022-10-22T04:58:19;420.25;;;81.50;;
16436;SDS011;8328;52.206;21.006;2022-10-22T05:00:45;421.50;;;81.47;;
16436;SDS011;8328;52.206;21.006;2022-10-22T05:03:10;419.80;;;83.80;;
16436;SDS011;8328;52.206;21.006;2022-10-22T05:05:36;429.57;;;84.23;;
16436;SDS011;8328;52.206;21.006;2022-10-22T05:08:02;420.53;;;81.53;;
16436;SDS011;8328;52.206;21.006;2022-10-22T05:10:27;427.03;;;82.90;;
16436;SDS011;8328;52.206;21.006;2022-10-22T05:12:53;423.87;;;83.73;;
16436;SDS011;8328;52.206;21.006;2022-10-22T05:15:19;417.17;;;84.17;;
16436;SDS011;8328;52.206;21.006;2022-10-22T05:17:45;429.77;;;88.77;;
16436;SDS011;8328;52.206;21.006;2022-10-22T05:20:10;428.63;;;87.60;;
16436;SDS011;8328;52.206;21.006;2022-10-22T05:22:36;419.83;;;83.77;;
16436;SDS011;8328;52.206;21.006;2022-10-22T05:25:02;421.67;;;84.23;;
16436;SDS011;8328;52.206;21.006;2022-10-22T05:27:28;423.70;;;83.82;;
16436;SDS011;8328;52.206;21.006;2022-10-22T05:29:54;426.67;;;86.93;;
16436;SDS011;8328;52.206;21.006;2022-10-22T05:32:19;419.67;;;85.30;;
16436;SDS011;8328;52.206;21.006;2022-10-22T05:34:45;428.27;;;86.67;;
16436;SDS011;8328;52.206;21.006;2022-10-22T05:37:11;427.10;;;85.97;;
16436;SDS011;8328;52.206;21.006;2022-10-22T05:39:36;426.37;;;86.47;;
16436;SDS011;8328;52.206;21.006;2022-10-22T05:42:04;429.90;;;86.50;;
16436;SDS011;8328;52.206;21.006;2022-10-22T05:44:30;425.43;;;85.50;;
16436;SDS011;8328;52.206;21.006;2022-10-22T05:46:56;426.00;;;88.70;;
16436;SDS011;8328;52.206;21.006;2022-10-22T05:49:22;431.73;;;88.13;;
16436;SDS011;8328;52.206;21.006;2022-10-22T05:51:47;430.20;;;90.60;;
16436;SDS011;8328;52.206;21.006;2022-10-22T05:54:17;429.77;;;88.07;;
16436;SDS011;8328;52.206;21.006;2022-10-22T05:56:44;433.70;;;90.55;;
16436;SDS011;8328;52.206;21.006;2022-10-22T05:59:10;436.80;;;95.60;;
16436;SDS011;8328;52.206;21.006;2022-10-22T06:01:37;436.97;;;96.83;;
16436;SDS011;8328;52.206;21.006;2022-10-22T06:04:04;430.10;;;92.32;;
16436;SDS011;8328;52.206;21.006;2022-10-22T06:09:44;438.08;;;92.75;;
16436;SDS011;8328;52.206;21.006;2022-10-22T06:11:53;429.15;;;91.95;;
16436;SDS011;8328;52.206;21.006;2022-10-22T06:14:20;438.77;;;92.85;;
16436;SDS011;8328;52.206;21.006;2022-10-22T06:16:47;436.10;;;93.15;;
16436;SDS011;8328;52.206;21.006;2022-10-22T06:19:14;435.88;;;94.60;;
16436;SDS011;8328;52.206;21.006;2022-10-22T06:21:40;437.63;;;90.53;;
16436;SDS011;8328;52.206;21.006;2022-10-22T06:24:07;437.23;;;93.30;;
16436;SDS011;8328;52.206;21.006;2022-10-22T06:26:34;441.23;;;93.50;;
16436;SDS011;8328;52.206;21.006;2022-10-22T06:29:00;431.92;;;92.10;;
16436;SDS011;8328;52.206;21.006;2022-10-22T06:31:26;444.73;;;98.65;;
16436;SDS011;8328;52.206;21.006;2022-10-22T06:33:53;428.42;;;91.25;;
16436;SDS011;8328;52.206;21.006;2022-10-22T06:36:21;438.30;;;93.60;;
16436;SDS011;8328;52.206;21.006;2022-10-22T06:38:51;434.17;;;94.43;;
16436;SDS011;8328;52.206;21.006;2022-10-22T06:41:18;437.90;;;95.55;;
16436;SDS011;8328;52.206;21.006;2022-10-22T06:43:44;436.00;;;95.05;;
16436;SDS011;8328;52.206;21.006;2022-10-22T06:46:16;436.48;;;93.63;;
16436;SDS011;8328;52.206;21.006;2022-10-22T06:48:47;432.52;;;93.78;;
16436;SDS011;8328;52.206;21.006;2022-10-22T06:51:14;434.50;;;94.93;;
16436;SDS011;8328;52.206;21.006;2022-10-22T06:53:40;437.00;;;96.07;;
16436;SDS011;8328;52.206;21.006;2022-10-22T06:56:07;440.30;;;99.10;;
16436;SDS011;8328;52.206;21.006;2022-10-22T06:58:34;440.50;;;99.40;;
16436;SDS011;8328;52.206;21.006;2022-10-22T07:01:01;441.95;;;96.68;;
16436;SDS011;8328;52.206;21.006;2022-10-22T07:03:28;435.23;;;96.85;;
16436;SDS011;8328;52.206;21.006;2022-10-22T07:05:54;433.63;;;96.10;;
16436;SDS011;8328;52.206;21.006;2022-10-22T07:08:26;433.50;;;98.55;;
16436;SDS011;8328;52.206;21.006;2022-10-22T07:10:53;437.52;;;100.22;;
16436;SDS011;8328;52.206;21.006;2022-10-22T07:13:20;439.40;;;101.88;;
16436;SDS011;8328;52.206;21.006;2022-10-22T07:15:52;428.20;;;95.82;;
16436;SDS011;8328;52.206;21.006;2022-10-22T07:18:19;433.58;;;94.28;;
16436;SDS011;8328;52.206;21.006;2022-10-22T07:20:46;436.65;;;96.88;;
16436;SDS011;8328;52.206;21.006;2022-10-22T07:23:13;441.73;;;93.57;;
16436;SDS011;8328;52.206;21.006;2022-10-22T07:25:39;435.30;;;92.15;;
16436;SDS011;8328;52.206;21.006;2022-10-22T07:28:06;430.52;;;91.65;;
16436;SDS011;8328;52.206;21.006;2022-10-22T07:30:35;429.95;;;93.68;;
16436;SDS011;8328;52.206;21.006;2022-10-22T07:33:01;437.50;;;94.75;;
16436;SDS011;8328;52.206;21.006;2022-10-22T07:35:27;420.63;;;90.80;;
16436;SDS011;8328;52.206;21.006;2022-10-22T07:37:53;433.67;;;95.43;;
16436;SDS011;8328;52.206;21.006;2022-10-22T07:40:19;434.47;;;93.43;;
16436;SDS011;8328;52.206;21.006;2022-10-22T07:42:45;436.73;;;87.83;;
16436;SDS011;8328;52.206;21.006;2022-10-22T07:45:10;418.63;;;87.53;;
16436;SDS011;8328;52.206;21.006;2022-10-22T07:47:36;434.07;;;91.97;;
16436;SDS011;8328;52.206;21.006;2022-10-22T07:50:02;426.63;;;92.13;;
16436;SDS011;8328;52.206;21.006;2022-10-22T07:52:29;430.80;;;92.43;;
16436;SDS011;8328;52.206;21.006;2022-10-22T07:54:55;431.10;;;91.83;;
16436;SDS011;8328;52.206;21.006;2022-10-22T07:57:20;435.70;;;93.87;;
16436;SDS011;8328;52.206;21.006;2022-10-22T07:59:46;434.93;;;97.67;;
16436;SDS011;8328;52.206;21.006;2022-10-22T08:02:12;434.20;;;96.10;;
16436;SDS011;8328;52.206;21.006;2022-10-22T08:04:37;435.07;;;96.47;;
16436;SDS011;8328;52.206;21.006;2022-10-22T08:07:04;442.98;;;98.90;;
16436;SDS011;8328;52.206;21.006;2022-10-22T08:09:30;437.23;;;97.63;;
16436;SDS011;8328;52.206;21.006;2022-10-22T08:11:56;433.63;;;97.22;;
16436;SDS011;8328;52.206;21.006;2022-10-22T08:14:28;440.00;;;99.80;;
16436;SDS011;8328;52.206;21.006;2022-10-22T08:16:55;430.25;;;96.75;;
16436;SDS011;8328;52.206;21.006;2022-10-22T08:19:20;439.20;;;98.50;;
16436;SDS011;8328;52.206;21.006;2022-10-22T08:21:46;435.53;;;101.90;;
16436;SDS011;8328;52.206;21.006;2022-10-22T08:24:12;434.98;;;103.78;;
16436;SDS011;8328;52.206;21.006;2022-10-22T08:26:38;438.33;;;105.22;;
16436;SDS011;8328;52.206;21.006;2022-10-22T08:29:05;448.00;;;108.57;;
16436;SDS011;8328;52.206;21.006;2022-10-22T08:31:31;433.55;;;98.53;;
16436;SDS011;8328;52.206;21.006;2022-10-22T08:33:57;439.05;;;104.00;;
16436;SDS011;8328;52.206;21.006;2022-10-22T08:36:23;444.87;;;105.70;;
16436;SDS011;8328;52.206;21.006;2022-10-22T08:38:49;437.67;;;100.70;;
16436;SDS011;8328;52.206;21.006;2022-10-22T08:41:15;442.13;;;103.73;;
16436;SDS011;8328;52.206;21.006;2022-10-22T08:43:46;437.27;;;103.72;;
16436;SDS011;8328;52.206;21.006;2022-10-22T08:49:25;429.88;;;98.45;;
16436;SDS011;8328;52.206;21.006;2022-10-22T08:51:54;436.38;;;104.45;;
16436;SDS011;8328;52.206;21.006;2022-10-22T08:54:32;440.95;;;107.53;;
16436;SDS011;8328;52.206;21.006;2022-10-22T08:59:45;436.95;;;107.50;;
16436;SDS011;8328;52.206;21.006;2022-10-22T09:07:41;439.67;;;110.13;;
16436;SDS011;8328;52.206;21.006;2022-10-22T09:10:12;443.45;;;109.82;;
16436;SDS011;8328;52.206;21.006;2022-10-22T09:12:38;440.13;;;109.43;;
16436;SDS011;8328;52.206;21.006;2022-10-22T09:15:04;441.20;;;109.05;;
16436;SDS011;8328;52.206;21.006;2022-10-22T09:17:43;442.20;;;107.18;;
16436;SDS011;8328;52.206;21.006;2022-10-22T09:25:32;445.88;;;109.40;;
16436;SDS011;8328;52.206;21.006;2022-10-22T09:28:00;430.13;;;103.15;;
16436;SDS011;8328;52.206;21.006;2022-10-22T09:30:30;444.70;;;109.13;;
16436;SDS011;8328;52.206;21.006;2022-10-22T09:35:26;440.75;;;110.35;;
16436;SDS011;8328;52.206;21.006;2022-10-22T09:37:54;439.80;;;111.05;;
16436;SDS011;8328;52.206;21.006;2022-10-22T09:40:20;451.10;;;116.45;;
16436;SDS011;8328;52.206;21.006;2022-10-22T09:42:47;438.35;;;110.38;;
16436;SDS011;8328;52.206;21.006;2022-10-22T09:45:20;442.50;;;111.47;;
16436;SDS011;8328;52.206;21.006;2022-10-22T09:47:48;451.88;;;116.45;;
16436;SDS011;8328;52.206;21.006;2022-10-22T09:53:00;445.75;;;117.97;;
16436;SDS011;8328;52.206;21.006;2022-10-22T09:55:31;446.05;;;116.13;;
16436;SDS011;8328;52.206;21.006;2022-10-22T09:57:58;441.13;;;113.07;;
16436;SDS011;8328;52.206;21.006;2022-10-22T10:00:25;460.65;;;123.75;;
16436;SDS011;8328;52.206;21.006;2022-10-22T10:02:55;439.25;;;112.15;;
16436;SDS011;8328;52.206;21.006;2022-10-22T10:05:29;446.95;;;111.22;;
16436;SDS011;8328;52.206;21.006;2022-10-22T10:07:56;445.48;;;111.03;;
16436;SDS011;8328;52.206;21.006;2022-10-22T10:10:33;446.23;;;108.50;;
16436;SDS011;8328;52.206;21.006;2022-10-22T10:24:44;449.83;;;112.55;;
16436;SDS011;8328;52.206;21.006;2022-10-22T10:27:39;446.90;;;111.60;;
16436;SDS011;8328;52.206;21.006;2022-10-22T10:35:48;451.15;;;114.30;;
16436;SDS011;8328;52.206;21.006;2022-10-22T10:38:46;449.88;;;112.72;;
16436;SDS011;8328;52.206;21.006;2022-10-22T10:47:08;427.02;;;99.35;;
16436;SDS011;8328;52.206;21.006;2022-10-22T10:49:43;439.45;;;107.03;;
16436;SDS011;8328;52.206;21.006;2022-10-22T10:54:39;443.97;;;104.00;;
16436;SDS011;8328;52.206;21.006;2022-10-22T10:57:15;435.35;;;101.70;;
16436;SDS011;8328;52.206;21.006;2022-10-22T11:05:19;433.80;;;101.05;;
16436;SDS011;8328;52.206;21.006;2022-10-22T11:07:57;442.95;;;101.50;;
16436;SDS011;8328;52.206;21.006;2022-10-22T11:10:44;444.48;;;98.78;;
16436;SDS011;8328;52.206;21.006;2022-10-22T11:16:00;443.58;;;99.97;;
16436;SDS011;8328;52.206;21.006;2022-10-22T11:18:47;443.70;;;102.07;;
16436;SDS011;8328;52.206;21.006;2022-10-22T11:21:26;452.83;;;107.40;;
16436;SDS011;8328;52.206;21.006;2022-10-22T11:24:34;451.33;;;104.57;;
16436;SDS011;8328;52.206;21.006;2022-10-22T11:27:06;441.52;;;101.30;;
16436;SDS011;8328;52.206;21.006;2022-10-22T11:29:45;450.85;;;110.00;;
16436;SDS011;8328;52.206;21.006;2022-10-22T11:32:17;450.10;;;108.82;;
16436;SDS011;8328;52.206;21.006;2022-10-22T11:34:49;449.13;;;106.20;;
16436;SDS011;8328;52.206;21.006;2022-10-22T11:37:19;446.65;;;107.85;;
16436;SDS011;8328;52.206;21.006;2022-10-22T11:39:50;454.35;;;115.28;;
16436;SDS011;8328;52.206;21.006;2022-10-22T11:42:40;440.50;;;104.55;;
16436;SDS011;8328;52.206;21.006;2022-10-22T11:50:22;454.10;;;112.15;;
16436;SDS011;8328;52.206;21.006;2022-10-22T12:22:29;447.85;;;110.60;;
16436;SDS011;8328;52.206;21.006;2022-10-22T12:25:01;445.83;;;112.47;;
16436;SDS011;8328;52.206;21.006;2022-10-22T12:27:34;447.48;;;112.22;;
16436;SDS011;8328;52.206;21.006;2022-10-22T12:30:17;447.35;;;112.82;;
16436;SDS011;8328;52.206;21.006;2022-10-22T12:32:52;448.02;;;112.95;;
16436;SDS011;8328;52.206;21.006;2022-10-22T12:35:23;456.75;;;120.10;;
16436;SDS011;8328;52.206;21.006;2022-10-22T12:37:50;456.38;;;120.22;;
16436;SDS011;8328;52.206;21.006;2022-10-22T12:40:29;456.38;;;121.25;;
16436;SDS011;8328;52.206;21.006;2022-10-22T12:43:00;461.13;;;121.57;;
16436;SDS011;8328;52.206;21.006;2022-10-22T12:45:31;451.63;;;116.05;;
16436;SDS011;8328;52.206;21.006;2022-10-22T12:48:03;456.95;;;119.32;;
16436;SDS011;8328;52.206;21.006;2022-10-22T12:53:04;449.98;;;118.10;;
16436;SDS011;8328;52.206;21.006;2022-10-22T12:55:44;453.60;;;116.28;;
16436;SDS011;8328;52.206;21.006;2022-10-22T12:58:17;451.15;;;113.28;;
16436;SDS011;8328;52.206;21.006;2022-10-22T13:00:45;452.67;;;117.82;;
16436;SDS011;8328;52.206;21.006;2022-10-22T13:03:34;451.73;;;115.82;;
16436;SDS011;8328;52.206;21.006;2022-10-22T13:08:44;448.58;;;113.32;;
16436;SDS011;8328;52.206;21.006;2022-10-22T13:11:40;452.88;;;115.57;;
16436;SDS011;8328;52.206;21.006;2022-10-22T13:14:27;450.80;;;109.10;;
16436;SDS011;8328;52.206;21.006;2022-10-22T13:17:01;452.73;;;113.70;;
16436;SDS011;8328;52.206;21.006;2022-10-22T13:19:38;452.52;;;114.70;;
16436;SDS011;8328;52.206;21.006;2022-10-22T13:24:54;453.70;;;109.90;;
16436;SDS011;8328;52.206;21.006;2022-10-22T13:27:25;456.10;;;112.97;;
16436;SDS011;8328;52.206;21.006;2022-10-22T13:29:52;454.17;;;111.55;;
16436;SDS011;8328;52.206;21.006;2022-10-22T13:32:24;454.08;;;111.53;;
16436;SDS011;8328;52.206;21.006;2022-10-22T13:34:57;452.30;;;111.30;;
16436;SDS011;8328;52.206;21.006;2022-10-22T13:37:24;445.70;;;106.60;;
16436;SDS011;8328;52.206;21.006;2022-10-22T13:39:50;445.23;;;107.65;;
16436;SDS011;8328;52.206;21.006;2022-10-22T13:42:16;460.27;;;114.17;;
16436;SDS011;8328;52.206;21.006;2022-10-22T13:44:42;445.67;;;107.27;;
16436;SDS011;8328;52.206;21.006;2022-10-22T13:47:10;452.83;;;108.00;;
16436;SDS011;8328;52.206;21.006;2022-10-22T13:49:49;455.80;;;109.25;;
16436;SDS011;8328;52.206;21.006;2022-10-22T13:52:21;454.85;;;112.63;;
16436;SDS011;8328;52.206;21.006;2022-10-22T13:54:57;444.92;;;108.30;;
16436;SDS011;8328;52.206;21.006;2022-10-22T13:57:23;445.83;;;106.30;;
16436;SDS011;8328;52.206;21.006;2022-10-22T13:59:49;451.53;;;103.27;;
16436;SDS011;8328;52.206;21.006;2022-10-22T14:02:15;451.90;;;103.80;;
16436;SDS011;8328;52.206;21.006;2022-10-22T14:04:42;454.52;;;106.03;;
16436;SDS011;8328;52.206;21.006;2022-10-22T14:07:12;448.50;;;104.28;;
16436;SDS011;8328;52.206;21.006;2022-10-22T14:09:40;442.02;;;103.47;;
16436;SDS011;8328;52.206;21.006;2022-10-22T14:12:11;448.00;;;106.13;;
16436;SDS011;8328;52.206;21.006;2022-10-22T14:14:38;447.80;;;105.68;;
16436;SDS011;8328;52.206;21.006;2022-10-22T14:17:04;455.40;;;108.47;;
16436;SDS011;8328;52.206;21.006;2022-10-22T14:19:33;442.48;;;103.55;;
16436;SDS011;8328;52.206;21.006;2022-10-22T14:21:58;447.63;;;104.70;;
16436;SDS011;8328;52.206;21.006;2022-10-22T14:24:24;458.15;;;109.53;;
16436;SDS011;8328;52.206;21.006;2022-10-22T14:26:50;445.57;;;102.20;;
16436;SDS011;8328;52.206;21.006;2022-10-22T14:29:16;447.87;;;103.50;;
16436;SDS011;8328;52.206;21.006;2022-10-22T14:31:42;452.33;;;106.27;;
16436;SDS011;8328;52.206;21.006;2022-10-22T14:34:09;453.77;;;107.95;;
16436;SDS011;8328;52.206;21.006;2022-10-22T14:36:36;454.70;;;104.80;;
16436;SDS011;8328;52.206;21.006;2022-10-22T14:39:02;459.30;;;114.00;;
16436;SDS011;8328;52.206;21.006;2022-10-22T14:41:27;458.98;;;112.60;;
16436;SDS011;8328;52.206;21.006;2022-10-22T14:43:55;461.48;;;113.53;;
16436;SDS011;8328;52.206;21.006;2022-10-22T14:46:21;454.48;;;110.15;;
16436;SDS011;8328;52.206;21.006;2022-10-22T14:48:47;462.20;;;111.68;;
16436;SDS011;8328;52.206;21.006;2022-10-22T14:51:13;449.33;;;108.03;;
16436;SDS011;8328;52.206;21.006;2022-10-22T14:53:41;454.77;;;108.40;;
16436;SDS011;8328;52.206;21.006;2022-10-22T14:56:11;455.83;;;110.18;;
16436;SDS011;8328;52.206;21.006;2022-10-22T14:58:37;450.48;;;109.15;;
16436;SDS011;8328;52.206;21.006;2022-10-22T15:01:03;458.45;;;110.50;;
16436;SDS011;8328;52.206;21.006;2022-10-22T15:03:29;456.15;;;107.35;;
16436;SDS011;8328;52.206;21.006;2022-10-22T15:05:55;446.00;;;105.53;;
16436;SDS011;8328;52.206;21.006;2022-10-22T15:08:22;465.00;;;114.70;;
16436;SDS011;8328;52.206;21.006;2022-10-22T15:13:43;457.10;;;104.10;;
16436;SDS011;8328;52.206;21.006;2022-10-22T15:16:09;456.10;;;107.13;;
16436;SDS011;8328;52.206;21.006;2022-10-22T15:18:37;458.73;;;111.38;;
16436;SDS011;8328;52.206;21.006;2022-10-22T15:21:04;449.50;;;105.20;;
16436;SDS011;8328;52.206;21.006;2022-10-22T15:23:38;456.23;;;104.47;;
16436;SDS011;8328;52.206;21.006;2022-10-22T15:26:08;457.17;;;111.50;;
16436;SDS011;8328;52.206;21.006;2022-10-22T15:28:35;456.63;;;108.55;;
16436;SDS011;8328;52.206;21.006;2022-10-22T15:31:02;455.17;;;107.63;;
16436;SDS011;8328;52.206;21.006;2022-10-22T15:33:28;458.93;;;106.20;;
16436;SDS011;8328;52.206;21.006;2022-10-22T15:35:54;449.63;;;106.82;;
16436;SDS011;8328;52.206;21.006;2022-10-22T15:38:20;452.60;;;107.10;;
16436;SDS011;8328;52.206;21.006;2022-10-22T15:40:50;464.80;;;109.00;;
16436;SDS011;8328;52.206;21.006;2022-10-22T15:43:28;453.40;;;107.05;;
16436;SDS011;8328;52.206;21.006;2022-10-22T15:48:51;458.63;;;109.95;;
16436;SDS011;8328;52.206;21.006;2022-10-22T15:51:18;459.58;;;108.82;;
16436;SDS011;8328;52.206;21.006;2022-10-22T15:53:51;448.27;;;103.57;;
16436;SDS011;8328;52.206;21.006;2022-10-22T15:56:18;452.60;;;103.10;;
16436;SDS011;8328;52.206;21.006;2022-10-22T15:58:44;457.35;;;107.72;;
16436;SDS011;8328;52.206;21.006;2022-10-22T16:01:10;455.75;;;109.03;;
16436;SDS011;8328;52.206;21.006;2022-10-22T16:03:37;462.05;;;110.05;;
16436;SDS011;8328;52.206;21.006;2022-10-22T16:06:04;457.25;;;109.43;;
16436;SDS011;8328;52.206;21.006;2022-10-22T16:08:31;460.23;;;108.97;;
16436;SDS011;8328;52.206;21.006;2022-10-22T16:10:57;460.65;;;109.38;;
16436;SDS011;8328;52.206;21.006;2022-10-22T16:13:23;452.55;;;110.05;;
16436;SDS011;8328;52.206;21.006;2022-10-22T16:15:50;458.63;;;113.18;;
16436;SDS011;8328;52.206;21.006;2022-10-22T16:18:17;452.77;;;110.57;;
16436;SDS011;8328;52.206;21.006;2022-10-22T16:20:43;459.85;;;111.05;;
16436;SDS011;8328;52.206;21.006;2022-10-22T16:23:09;461.37;;;113.20;;
16436;SDS011;8328;52.206;21.006;2022-10-22T16:25:38;450.47;;;110.87;;
16436;SDS011;8328;52.206;21.006;2022-10-22T16:28:05;449.70;;;108.10;;
16436;SDS011;8328;52.206;21.006;2022-10-22T16:30:35;454.02;;;109.78;;